sensor_id;sensor_type;location;lat;lon;timestamp;P1;durP1;ratioP1;P2;durP2;ratioP2
85831;SDS011;76278;51.296;16.924;2024-02-21T00:01:34;19.63;;;6.68;;
85831;SDS011;76278;51.296;16.924;2024-02-21T00:04:00;16.30;;;5.50;;
85831;SDS011;76278;51.296;16.924;2024-02-21T00:06:25;15.55;;;5.30;;
85831;SDS011;76278;51.296;16.924;2024-02-21T00:08:51;15.90;;;5.07;;
85831;SDS011;76278;51.296;16.924;2024-02-21T00:11:16;15.00;;;4.57;;
85831;SDS011;76278;51.296;16.924;2024-02-21T00:13:41;16.90;;;4.50;;
85831;SDS011;76278;51.296;16.924;2024-02-21T00:16:07;15.15;;;4.68;;
85831;SDS011;76278;51.296;16.924;2024-02-21T00:18:32;15.60;;;4.70;;
85831;SDS011;76278;51.296;16.924;2024-02-21T00:20:58;16.40;;;4.10;;
85831;SDS011;76278;51.296;16.924;2024-02-21T00:23:24;15.50;;;5.13;;
85831;SDS011;76278;51.296;16.924;2024-02-21T00:25:49;19.83;;;4.13;;
85831;SDS011;76278;51.296;16.924;2024-02-21T00:28:14;13.45;;;4.63;;
85831;SDS011;76278;51.296;16.924;2024-02-21T00:30:40;15.95;;;5.13;;
85831;SDS011;76278;51.296;16.924;2024-02-21T00:33:05;16.50;;;4.45;;
85831;SDS011;76278;51.296;16.924;2024-02-21T00:35:31;16.83;;;4.82;;
85831;SDS011;76278;51.296;16.924;2024-02-21T00:37:56;16.80;;;4.43;;
85831;SDS011;76278;51.296;16.924;2024-02-21T00:40:22;15.60;;;5.00;;
85831;SDS011;76278;51.296;16.924;2024-02-21T00:42:48;17.35;;;5.32;;
85831;SDS011;76278;51.296;16.924;2024-02-21T00:45:13;15.40;;;4.70;;
85831;SDS011;76278;51.296;16.924;2024-02-21T00:47:39;15.15;;;4.30;;
85831;SDS011;76278;51.296;16.924;2024-02-21T00:50:05;15.30;;;5.47;;
85831;SDS011;76278;51.296;16.924;2024-02-21T00:52:32;16.65;;;5.28;;
85831;SDS011;76278;51.296;16.924;2024-02-21T00:54:58;12.98;;;5.35;;
85831;SDS011;76278;51.296;16.924;2024-02-21T00:57:23;19.85;;;5.82;;
85831;SDS011;76278;51.296;16.924;2024-02-21T00:59:49;16.38;;;4.85;;
85831;SDS011;76278;51.296;16.924;2024-02-21T01:02:14;16.80;;;5.40;;
85831;SDS011;76278;51.296;16.924;2024-02-21T01:04:39;18.05;;;5.03;;
85831;SDS011;76278;51.296;16.924;2024-02-21T01:07:05;15.43;;;4.70;;
85831;SDS011;76278;51.296;16.924;2024-02-21T01:09:30;16.60;;;4.57;;
85831;SDS011;76278;51.296;16.924;2024-02-21T01:11:56;14.73;;;4.75;;
85831;SDS011;76278;51.296;16.924;2024-02-21T01:14:21;13.93;;;4.53;;
85831;SDS011;76278;51.296;16.924;2024-02-21T01:16:47;14.07;;;4.57;;
85831;SDS011;76278;51.296;16.924;2024-02-21T01:19:12;12.15;;;4.00;;
85831;SDS011;76278;51.296;16.924;2024-02-21T01:21:37;14.82;;;4.38;;
85831;SDS011;76278;51.296;16.924;2024-02-21T01:24:03;17.58;;;4.20;;
85831;SDS011;76278;51.296;16.924;2024-02-21T01:26:28;15.27;;;3.97;;
85831;SDS011;76278;51.296;16.924;2024-02-21T01:28:54;16.13;;;3.85;;
85831;SDS011;76278;51.296;16.924;2024-02-21T01:31:19;15.82;;;4.22;;
85831;SDS011;76278;51.296;16.924;2024-02-21T01:33:45;14.60;;;3.97;;
85831;SDS011;76278;51.296;16.924;2024-02-21T01:36:10;16.90;;;4.43;;
85831;SDS011;76278;51.296;16.924;2024-02-21T01:38:36;15.38;;;4.00;;
85831;SDS011;76278;51.296;16.924;2024-02-21T01:41:01;15.98;;;4.32;;
85831;SDS011;76278;51.296;16.924;2024-02-21T01:43:28;14.18;;;3.88;;
85831;SDS011;76278;51.296;16.924;2024-02-21T01:45:54;18.92;;;3.95;;
85831;SDS011;76278;51.296;16.924;2024-02-21T01:48:20;15.93;;;4.20;;
85831;SDS011;76278;51.296;16.924;2024-02-21T01:50:47;13.82;;;4.53;;
85831;SDS011;76278;51.296;16.924;2024-02-21T01:53:21;14.75;;;4.70;;
85831;SDS011;76278;51.296;16.924;2024-02-21T01:55:48;15.25;;;4.40;;
85831;SDS011;76278;51.296;16.924;2024-02-21T01:58:14;16.52;;;5.47;;
85831;SDS011;76278;51.296;16.924;2024-02-21T02:00:41;14.65;;;4.68;;
85831;SDS011;76278;51.296;16.924;2024-02-21T02:03:07;19.15;;;4.90;;
85831;SDS011;76278;51.296;16.924;2024-02-21T02:05:35;17.00;;;5.38;;
85831;SDS011;76278;51.296;16.924;2024-02-21T02:08:01;15.80;;;4.82;;
85831;SDS011;76278;51.296;16.924;2024-02-21T02:10:26;19.38;;;4.72;;
85831;SDS011;76278;51.296;16.924;2024-02-21T02:12:52;16.98;;;4.53;;
85831;SDS011;76278;51.296;16.924;2024-02-21T02:15:17;17.20;;;5.00;;
85831;SDS011;76278;51.296;16.924;2024-02-21T02:17:43;18.55;;;4.38;;
85831;SDS011;76278;51.296;16.924;2024-02-21T02:20:08;17.98;;;4.68;;
85831;SDS011;76278;51.296;16.924;2024-02-21T02:22:34;15.00;;;4.47;;
85831;SDS011;76278;51.296;16.924;2024-02-21T02:25:02;14.80;;;4.40;;
85831;SDS011;76278;51.296;16.924;2024-02-21T02:27:28;19.52;;;4.80;;
85831;SDS011;76278;51.296;16.924;2024-02-21T02:29:53;15.77;;;4.45;;
85831;SDS011;76278;51.296;16.924;2024-02-21T02:32:19;11.05;;;4.03;;
85831;SDS011;76278;51.296;16.924;2024-02-21T02:34:44;20.90;;;4.05;;
85831;SDS011;76278;51.296;16.924;2024-02-21T02:37:10;15.38;;;4.25;;
85831;SDS011;76278;51.296;16.924;2024-02-21T02:39:35;19.25;;;4.68;;
85831;SDS011;76278;51.296;16.924;2024-02-21T02:42:01;18.50;;;4.35;;
85831;SDS011;76278;51.296;16.924;2024-02-21T02:44:26;13.63;;;4.30;;
85831;SDS011;76278;51.296;16.924;2024-02-21T02:46:52;15.18;;;4.25;;
85831;SDS011;76278;51.296;16.924;2024-02-21T02:49:17;15.40;;;3.28;;
85831;SDS011;76278;51.296;16.924;2024-02-21T02:51:43;14.77;;;3.65;;
85831;SDS011;76278;51.296;16.924;2024-02-21T02:54:09;13.68;;;3.83;;
85831;SDS011;76278;51.296;16.924;2024-02-21T02:56:34;14.13;;;3.60;;
85831;SDS011;76278;51.296;16.924;2024-02-21T02:59:00;13.27;;;3.97;;
85831;SDS011;76278;51.296;16.924;2024-02-21T03:01:25;13.75;;;3.92;;
85831;SDS011;76278;51.296;16.924;2024-02-21T03:03:51;11.88;;;3.63;;
85831;SDS011;76278;51.296;16.924;2024-02-21T03:06:16;12.02;;;4.30;;
85831;SDS011;76278;51.296;16.924;2024-02-21T03:08:42;17.95;;;4.32;;
85831;SDS011;76278;51.296;16.924;2024-02-21T03:11:07;15.15;;;4.10;;
85831;SDS011;76278;51.296;16.924;2024-02-21T03:13:33;15.02;;;5.00;;
85831;SDS011;76278;51.296;16.924;2024-02-21T03:15:59;16.45;;;4.65;;
85831;SDS011;76278;51.296;16.924;2024-02-21T03:18:24;13.75;;;4.88;;
85831;SDS011;76278;51.296;16.924;2024-02-21T03:20:49;14.05;;;5.55;;
85831;SDS011;76278;51.296;16.924;2024-02-21T03:23:15;15.75;;;5.30;;
85831;SDS011;76278;51.296;16.924;2024-02-21T03:25:40;18.33;;;6.93;;
85831;SDS011;76278;51.296;16.924;2024-02-21T03:28:06;17.95;;;6.28;;
85831;SDS011;76278;51.296;16.924;2024-02-21T03:30:31;18.38;;;6.75;;
85831;SDS011;76278;51.296;16.924;2024-02-21T03:32:58;17.40;;;6.05;;
85831;SDS011;76278;51.296;16.924;2024-02-21T03:35:24;16.50;;;6.32;;
85831;SDS011;76278;51.296;16.924;2024-02-21T03:40:17;14.90;;;5.95;;
85831;SDS011;76278;51.296;16.924;2024-02-21T03:42:42;16.55;;;6.68;;
85831;SDS011;76278;51.296;16.924;2024-02-21T03:45:07;19.08;;;6.00;;
85831;SDS011;76278;51.296;16.924;2024-02-21T03:47:33;16.15;;;5.70;;
85831;SDS011;76278;51.296;16.924;2024-02-21T03:49:59;19.27;;;6.32;;
85831;SDS011;76278;51.296;16.924;2024-02-21T03:52:25;15.10;;;5.97;;
85831;SDS011;76278;51.296;16.924;2024-02-21T03:54:50;18.85;;;7.43;;
85831;SDS011;76278;51.296;16.924;2024-02-21T03:57:16;18.88;;;5.93;;
85831;SDS011;76278;51.296;16.924;2024-02-21T03:59:42;19.10;;;6.03;;
85831;SDS011;76278;51.296;16.924;2024-02-21T04:02:08;14.57;;;4.95;;
85831;SDS011;76278;51.296;16.924;2024-02-21T04:04:34;14.88;;;5.15;;
85831;SDS011;76278;51.296;16.924;2024-02-21T04:07:02;19.13;;;5.60;;
85831;SDS011;76278;51.296;16.924;2024-02-21T04:09:31;17.95;;;6.20;;
85831;SDS011;76278;51.296;16.924;2024-02-21T04:11:58;16.48;;;5.78;;
85831;SDS011;76278;51.296;16.924;2024-02-21T04:14:23;17.42;;;6.25;;
85831;SDS011;76278;51.296;16.924;2024-02-21T04:16:48;15.07;;;6.15;;
85831;SDS011;76278;51.296;16.924;2024-02-21T04:19:14;17.05;;;6.25;;
85831;SDS011;76278;51.296;16.924;2024-02-21T04:21:39;17.80;;;6.68;;
85831;SDS011;76278;51.296;16.924;2024-02-21T04:24:04;15.77;;;5.90;;
85831;SDS011;76278;51.296;16.924;2024-02-21T04:26:30;22.27;;;6.03;;
85831;SDS011;76278;51.296;16.924;2024-02-21T04:28:56;16.25;;;6.43;;
85831;SDS011;76278;51.296;16.924;2024-02-21T04:31:21;16.60;;;6.13;;
85831;SDS011;76278;51.296;16.924;2024-02-21T04:33:46;18.42;;;6.18;;
85831;SDS011;76278;51.296;16.924;2024-02-21T04:36:12;17.33;;;7.50;;
85831;SDS011;76278;51.296;16.924;2024-02-21T04:38:37;16.55;;;7.55;;
85831;SDS011;76278;51.296;16.924;2024-02-21T04:41:04;18.50;;;8.75;;
85831;SDS011;76278;51.296;16.924;2024-02-21T04:43:29;20.85;;;7.97;;
85831;SDS011;76278;51.296;16.924;2024-02-21T04:45:54;16.85;;;7.15;;
85831;SDS011;76278;51.296;16.924;2024-02-21T04:48:20;19.05;;;7.47;;
85831;SDS011;76278;51.296;16.924;2024-02-21T04:50:46;15.45;;;7.13;;
85831;SDS011;76278;51.296;16.924;2024-02-21T04:53:11;19.67;;;6.85;;
85831;SDS011;76278;51.296;16.924;2024-02-21T04:55:36;19.52;;;6.53;;
85831;SDS011;76278;51.296;16.924;2024-02-21T04:58:02;17.42;;;6.18;;
85831;SDS011;76278;51.296;16.924;2024-02-21T05:00:27;15.90;;;6.53;;
85831;SDS011;76278;51.296;16.924;2024-02-21T05:02:53;14.93;;;5.82;;
85831;SDS011;76278;51.296;16.924;2024-02-21T05:05:18;19.45;;;6.53;;
85831;SDS011;76278;51.296;16.924;2024-02-21T05:07:44;19.73;;;6.68;;
85831;SDS011;76278;51.296;16.924;2024-02-21T05:10:10;21.85;;;6.80;;
85831;SDS011;76278;51.296;16.924;2024-02-21T05:12:35;18.58;;;6.20;;
85831;SDS011;76278;51.296;16.924;2024-02-21T05:15:01;18.52;;;7.30;;
85831;SDS011;76278;51.296;16.924;2024-02-21T05:17:27;17.42;;;8.30;;
85831;SDS011;76278;51.296;16.924;2024-02-21T05:19:53;22.35;;;8.35;;
85831;SDS011;76278;51.296;16.924;2024-02-21T05:22:18;19.80;;;7.78;;
85831;SDS011;76278;51.296;16.924;2024-02-21T05:24:44;18.73;;;7.30;;
85831;SDS011;76278;51.296;16.924;2024-02-21T05:27:09;17.35;;;8.10;;
85831;SDS011;76278;51.296;16.924;2024-02-21T05:29:34;19.67;;;8.15;;
85831;SDS011;76278;51.296;16.924;2024-02-21T05:32:00;23.30;;;9.73;;
85831;SDS011;76278;51.296;16.924;2024-02-21T05:34:25;20.88;;;8.40;;
85831;SDS011;76278;51.296;16.924;2024-02-21T05:36:51;20.52;;;9.80;;
85831;SDS011;76278;51.296;16.924;2024-02-21T05:39:17;29.45;;;12.73;;
85831;SDS011;76278;51.296;16.924;2024-02-21T05:41:43;22.38;;;12.13;;
85831;SDS011;76278;51.296;16.924;2024-02-21T05:44:08;30.90;;;13.05;;
85831;SDS011;76278;51.296;16.924;2024-02-21T05:46:34;24.42;;;12.02;;
85831;SDS011;76278;51.296;16.924;2024-02-21T05:49:00;23.52;;;11.18;;
85831;SDS011;76278;51.296;16.924;2024-02-21T05:51:25;20.30;;;9.90;;
85831;SDS011;76278;51.296;16.924;2024-02-21T05:53:50;20.48;;;10.68;;
85831;SDS011;76278;51.296;16.924;2024-02-21T05:56:16;22.98;;;11.38;;
85831;SDS011;76278;51.296;16.924;2024-02-21T05:58:43;22.52;;;12.32;;
85831;SDS011;76278;51.296;16.924;2024-02-21T06:01:09;17.70;;;10.38;;
85831;SDS011;76278;51.296;16.924;2024-02-21T06:03:34;21.20;;;9.93;;
85831;SDS011;76278;51.296;16.924;2024-02-21T06:06:00;18.55;;;8.95;;
85831;SDS011;76278;51.296;16.924;2024-02-21T06:08:25;24.75;;;8.73;;
85831;SDS011;76278;51.296;16.924;2024-02-21T06:10:51;19.05;;;8.63;;
85831;SDS011;76278;51.296;16.924;2024-02-21T06:13:25;18.98;;;9.18;;
85831;SDS011;76278;51.296;16.924;2024-02-21T06:15:51;22.80;;;9.57;;
85831;SDS011;76278;51.296;16.924;2024-02-21T06:18:17;20.20;;;9.10;;
85831;SDS011;76278;51.296;16.924;2024-02-21T06:20:42;17.52;;;8.70;;
85831;SDS011;76278;51.296;16.924;2024-02-21T06:23:08;16.95;;;7.85;;
85831;SDS011;76278;51.296;16.924;2024-02-21T06:25:34;20.05;;;8.15;;
85831;SDS011;76278;51.296;16.924;2024-02-21T06:27:59;20.23;;;8.15;;
85831;SDS011;76278;51.296;16.924;2024-02-21T06:30:25;17.08;;;7.00;;
85831;SDS011;76278;51.296;16.924;2024-02-21T06:32:50;14.10;;;6.60;;
85831;SDS011;76278;51.296;16.924;2024-02-21T06:35:15;16.77;;;8.18;;
85831;SDS011;76278;51.296;16.924;2024-02-21T06:37:42;19.80;;;9.27;;
85831;SDS011;76278;51.296;16.924;2024-02-21T06:40:07;25.45;;;9.63;;
85831;SDS011;76278;51.296;16.924;2024-02-21T06:42:33;18.33;;;9.05;;
85831;SDS011;76278;51.296;16.924;2024-02-21T06:44:58;23.17;;;8.50;;
85831;SDS011;76278;51.296;16.924;2024-02-21T06:47:23;21.50;;;8.82;;
85831;SDS011;76278;51.296;16.924;2024-02-21T06:49:49;20.67;;;9.52;;
85831;SDS011;76278;51.296;16.924;2024-02-21T06:52:18;25.23;;;9.57;;
85831;SDS011;76278;51.296;16.924;2024-02-21T06:54:45;28.33;;;9.88;;
85831;SDS011;76278;51.296;16.924;2024-02-21T06:57:12;30.48;;;10.93;;
85831;SDS011;76278;51.296;16.924;2024-02-21T06:59:38;30.73;;;11.38;;
85831;SDS011;76278;51.296;16.924;2024-02-21T07:02:03;37.70;;;13.10;;
85831;SDS011;76278;51.296;16.924;2024-02-21T07:04:28;34.08;;;13.15;;
85831;SDS011;76278;51.296;16.924;2024-02-21T07:06:54;40.28;;;15.88;;
85831;SDS011;76278;51.296;16.924;2024-02-21T07:09:19;44.28;;;15.20;;
85831;SDS011;76278;51.296;16.924;2024-02-21T07:11:45;46.53;;;18.60;;
85831;SDS011;76278;51.296;16.924;2024-02-21T07:14:10;55.75;;;18.92;;
85831;SDS011;76278;51.296;16.924;2024-02-21T07:16:35;55.92;;;19.33;;
85831;SDS011;76278;51.296;16.924;2024-02-21T07:19:02;46.35;;;16.60;;
85831;SDS011;76278;51.296;16.924;2024-02-21T07:21:27;45.45;;;15.57;;
85831;SDS011;76278;51.296;16.924;2024-02-21T07:23:53;37.53;;;14.25;;
85831;SDS011;76278;51.296;16.924;2024-02-21T07:26:19;36.75;;;14.32;;
85831;SDS011;76278;51.296;16.924;2024-02-21T07:28:45;34.65;;;14.10;;
85831;SDS011;76278;51.296;16.924;2024-02-21T07:31:11;33.65;;;13.77;;
85831;SDS011;76278;51.296;16.924;2024-02-21T07:33:36;30.08;;;14.07;;
85831;SDS011;76278;51.296;16.924;2024-02-21T07:36:05;31.45;;;12.13;;
85831;SDS011;76278;51.296;16.924;2024-02-21T07:38:31;28.67;;;11.93;;
85831;SDS011;76278;51.296;16.924;2024-02-21T07:40:56;29.67;;;11.23;;
85831;SDS011;76278;51.296;16.924;2024-02-21T07:43:22;28.10;;;10.82;;
85831;SDS011;76278;51.296;16.924;2024-02-21T07:45:47;23.63;;;9.98;;
85831;SDS011;76278;51.296;16.924;2024-02-21T07:48:13;24.88;;;11.73;;
85831;SDS011;76278;51.296;16.924;2024-02-21T07:50:38;24.58;;;11.15;;
85831;SDS011;76278;51.296;16.924;2024-02-21T07:53:03;22.85;;;10.88;;
85831;SDS011;76278;51.296;16.924;2024-02-21T07:55:29;23.33;;;11.27;;
85831;SDS011;76278;51.296;16.924;2024-02-21T07:57:54;22.25;;;10.18;;
85831;SDS011;76278;51.296;16.924;2024-02-21T08:00:20;23.48;;;10.73;;
85831;SDS011;76278;51.296;16.924;2024-02-21T08:02:47;24.05;;;9.13;;
85831;SDS011;76278;51.296;16.924;2024-02-21T08:07:38;23.30;;;9.83;;
85831;SDS011;76278;51.296;16.924;2024-02-21T08:10:04;24.77;;;11.05;;
85831;SDS011;76278;51.296;16.924;2024-02-21T08:12:32;26.80;;;11.80;;
85831;SDS011;76278;51.296;16.924;2024-02-21T08:14:57;24.42;;;12.38;;
85831;SDS011;76278;51.296;16.924;2024-02-21T08:17:23;28.35;;;14.00;;
85831;SDS011;76278;51.296;16.924;2024-02-21T08:19:48;28.08;;;13.80;;
85831;SDS011;76278;51.296;16.924;2024-02-21T08:22:14;28.95;;;14.35;;
85831;SDS011;76278;51.296;16.924;2024-02-21T08:24:39;28.42;;;13.65;;
85831;SDS011;76278;51.296;16.924;2024-02-21T08:27:05;24.55;;;12.73;;
85831;SDS011;76278;51.296;16.924;2024-02-21T08:29:31;22.70;;;11.27;;
85831;SDS011;76278;51.296;16.924;2024-02-21T08:31:56;21.77;;;10.13;;
85831;SDS011;76278;51.296;16.924;2024-02-21T08:34:22;21.92;;;10.10;;
85831;SDS011;76278;51.296;16.924;2024-02-21T08:36:47;21.13;;;9.15;;
85831;SDS011;76278;51.296;16.924;2024-02-21T08:39:12;21.63;;;9.20;;
85831;SDS011;76278;51.296;16.924;2024-02-21T08:41:41;21.85;;;8.05;;
85831;SDS011;76278;51.296;16.924;2024-02-21T08:44:07;22.05;;;9.50;;
85831;SDS011;76278;51.296;16.924;2024-02-21T08:46:33;27.58;;;13.75;;
85831;SDS011;76278;51.296;16.924;2024-02-21T08:48:58;25.70;;;15.63;;
85831;SDS011;76278;51.296;16.924;2024-02-21T08:51:24;33.45;;;19.70;;
85831;SDS011;76278;51.296;16.924;2024-02-21T08:53:49;29.00;;;17.67;;
85831;SDS011;76278;51.296;16.924;2024-02-21T08:56:15;29.13;;;23.70;;
85831;SDS011;76278;51.296;16.924;2024-02-21T08:58:41;24.70;;;15.38;;
85831;SDS011;76278;51.296;16.924;2024-02-21T09:01:06;20.75;;;10.52;;
85831;SDS011;76278;51.296;16.924;2024-02-21T09:03:35;17.98;;;8.77;;
85831;SDS011;76278;51.296;16.924;2024-02-21T09:06:01;14.05;;;7.05;;
85831;SDS011;76278;51.296;16.924;2024-02-21T09:08:26;15.63;;;8.55;;
85831;SDS011;76278;51.296;16.924;2024-02-21T09:10:52;15.52;;;7.47;;
85831;SDS011;76278;51.296;16.924;2024-02-21T09:13:18;16.38;;;6.72;;
85831;SDS011;76278;51.296;16.924;2024-02-21T09:15:43;18.65;;;7.78;;
85831;SDS011;76278;51.296;16.924;2024-02-21T09:18:09;19.20;;;7.20;;
85831;SDS011;76278;51.296;16.924;2024-02-21T09:20:34;21.52;;;8.30;;
85831;SDS011;76278;51.296;16.924;2024-02-21T09:23:00;20.98;;;8.15;;
85831;SDS011;76278;51.296;16.924;2024-02-21T09:25:25;28.45;;;10.75;;
85831;SDS011;76278;51.296;16.924;2024-02-21T09:27:50;23.02;;;9.75;;
85831;SDS011;76278;51.296;16.924;2024-02-21T09:30:17;25.13;;;9.45;;
85831;SDS011;76278;51.296;16.924;2024-02-21T09:32:42;22.88;;;9.77;;
85831;SDS011;76278;51.296;16.924;2024-02-21T09:35:08;26.08;;;9.13;;
85831;SDS011;76278;51.296;16.924;2024-02-21T09:37:33;19.58;;;7.55;;
85831;SDS011;76278;51.296;16.924;2024-02-21T09:39:59;22.42;;;9.00;;
85831;SDS011;76278;51.296;16.924;2024-02-21T09:42:27;26.45;;;10.60;;
85831;SDS011;76278;51.296;16.924;2024-02-21T09:44:59;27.23;;;9.85;;
85831;SDS011;76278;51.296;16.924;2024-02-21T09:47:30;28.45;;;9.25;;
85831;SDS011;76278;51.296;16.924;2024-02-21T09:50:04;21.25;;;8.63;;
85831;SDS011;76278;51.296;16.924;2024-02-21T09:52:30;30.45;;;11.52;;
85831;SDS011;76278;51.296;16.924;2024-02-21T09:54:55;30.13;;;11.55;;
85831;SDS011;76278;51.296;16.924;2024-02-21T09:57:22;28.33;;;10.38;;
85831;SDS011;76278;51.296;16.924;2024-02-21T09:59:48;26.27;;;9.20;;
85831;SDS011;76278;51.296;16.924;2024-02-21T10:02:15;21.80;;;7.68;;
85831;SDS011;76278;51.296;16.924;2024-02-21T10:04:40;15.88;;;6.38;;
85831;SDS011;76278;51.296;16.924;2024-02-21T10:07:06;18.83;;;7.50;;
85831;SDS011;76278;51.296;16.924;2024-02-21T10:09:32;19.00;;;8.48;;
85831;SDS011;76278;51.296;16.924;2024-02-21T10:12:08;21.75;;;15.65;;
85831;SDS011;76278;51.296;16.924;2024-02-21T10:14:37;23.27;;;14.75;;
85831;SDS011;76278;51.296;16.924;2024-02-21T10:17:03;27.75;;;13.88;;
85831;SDS011;76278;51.296;16.924;2024-02-21T10:19:30;24.45;;;15.85;;
85831;SDS011;76278;51.296;16.924;2024-02-21T10:22:05;20.63;;;11.20;;
85831;SDS011;76278;51.296;16.924;2024-02-21T10:24:32;16.70;;;9.52;;
85831;SDS011;76278;51.296;16.924;2024-02-21T10:27:07;20.42;;;9.05;;
85831;SDS011;76278;51.296;16.924;2024-02-21T10:29:37;15.55;;;6.63;;
85831;SDS011;76278;51.296;16.924;2024-02-21T10:32:09;14.55;;;7.18;;
85831;SDS011;76278;51.296;16.924;2024-02-21T10:34:39;11.68;;;5.32;;
85831;SDS011;76278;51.296;16.924;2024-02-21T10:37:05;15.70;;;6.57;;
85831;SDS011;76278;51.296;16.924;2024-02-21T10:39:32;17.05;;;6.40;;
85831;SDS011;76278;51.296;16.924;2024-02-21T10:42:07;17.20;;;4.93;;
85831;SDS011;76278;51.296;16.924;2024-02-21T10:44:39;21.30;;;8.93;;
85831;SDS011;76278;51.296;16.924;2024-02-21T10:47:09;23.77;;;16.10;;
85831;SDS011;76278;51.296;16.924;2024-02-21T10:49:39;24.30;;;18.90;;
85831;SDS011;76278;51.296;16.924;2024-02-21T10:54:47;35.72;;;30.40;;
85831;SDS011;76278;51.296;16.924;2024-02-21T10:57:16;50.33;;;44.88;;
85831;SDS011;76278;51.296;16.924;2024-02-21T10:59:41;31.85;;;25.38;;
85831;SDS011;76278;51.296;16.924;2024-02-21T11:02:09;30.70;;;24.67;;
85831;SDS011;76278;51.296;16.924;2024-02-21T11:04:35;25.65;;;19.80;;
85831;SDS011;76278;51.296;16.924;2024-02-21T11:07:01;21.73;;;14.60;;
85831;SDS011;76278;51.296;16.924;2024-02-21T11:09:31;19.08;;;12.57;;
85831;SDS011;76278;51.296;16.924;2024-02-21T11:12:03;25.30;;;13.05;;
85831;SDS011;76278;51.296;16.924;2024-02-21T11:14:30;20.10;;;10.90;;
85831;SDS011;76278;51.296;16.924;2024-02-21T11:17:02;19.83;;;9.80;;
85831;SDS011;76278;51.296;16.924;2024-02-21T11:19:29;27.80;;;11.50;;
85831;SDS011;76278;51.296;16.924;2024-02-21T11:21:56;23.27;;;11.50;;
85831;SDS011;76278;51.296;16.924;2024-02-21T11:24:32;19.80;;;10.57;;
85831;SDS011;76278;51.296;16.924;2024-02-21T11:29:42;19.98;;;8.40;;
85831;SDS011;76278;51.296;16.924;2024-02-21T11:32:29;19.45;;;9.13;;
85831;SDS011;76278;51.296;16.924;2024-02-21T11:34:56;17.10;;;9.52;;
85831;SDS011;76278;51.296;16.924;2024-02-21T11:37:26;19.33;;;8.15;;
85831;SDS011;76278;51.296;16.924;2024-02-21T11:39:53;16.60;;;8.70;;
85831;SDS011;76278;51.296;16.924;2024-02-21T11:42:18;20.25;;;10.27;;
85831;SDS011;76278;51.296;16.924;2024-02-21T11:44:45;17.02;;;9.55;;
85831;SDS011;76278;51.296;16.924;2024-02-21T11:47:10;19.17;;;9.45;;
85831;SDS011;76278;51.296;16.924;2024-02-21T11:49:37;18.17;;;9.90;;
85831;SDS011;76278;51.296;16.924;2024-02-21T11:52:04;23.05;;;9.70;;
85831;SDS011;76278;51.296;16.924;2024-02-21T11:54:30;15.52;;;8.93;;
85831;SDS011;76278;51.296;16.924;2024-02-21T11:56:56;21.52;;;9.70;;
85831;SDS011;76278;51.296;16.924;2024-02-21T11:59:22;21.50;;;10.23;;
85831;SDS011;76278;51.296;16.924;2024-02-21T12:01:50;26.05;;;12.60;;
85831;SDS011;76278;51.296;16.924;2024-02-21T12:04:21;23.48;;;13.68;;
85831;SDS011;76278;51.296;16.924;2024-02-21T12:06:49;24.50;;;13.88;;
85831;SDS011;76278;51.296;16.924;2024-02-21T12:09:15;30.48;;;14.77;;
85831;SDS011;76278;51.296;16.924;2024-02-21T12:11:44;30.30;;;13.90;;
85831;SDS011;76278;51.296;16.924;2024-02-21T12:14:10;24.67;;;13.80;;
85831;SDS011;76278;51.296;16.924;2024-02-21T12:16:36;24.02;;;13.07;;
85831;SDS011;76278;51.296;16.924;2024-02-21T12:19:05;22.35;;;11.80;;
85831;SDS011;76278;51.296;16.924;2024-02-21T12:21:31;17.42;;;8.65;;
85831;SDS011;76278;51.296;16.924;2024-02-21T12:24:00;18.02;;;9.25;;
85831;SDS011;76278;51.296;16.924;2024-02-21T12:26:39;21.25;;;8.98;;
85831;SDS011;76278;51.296;16.924;2024-02-21T12:29:05;25.23;;;9.70;;
85831;SDS011;76278;51.296;16.924;2024-02-21T12:31:31;17.08;;;6.97;;
85831;SDS011;76278;51.296;16.924;2024-02-21T12:33:56;16.52;;;7.15;;
85831;SDS011;76278;51.296;16.924;2024-02-21T12:36:21;17.75;;;8.10;;
85831;SDS011;76278;51.296;16.924;2024-02-21T12:38:47;15.65;;;6.35;;
85831;SDS011;76278;51.296;16.924;2024-02-21T12:41:14;18.00;;;7.95;;
85831;SDS011;76278;51.296;16.924;2024-02-21T12:43:39;19.88;;;9.10;;
85831;SDS011;76278;51.296;16.924;2024-02-21T12:46:05;19.27;;;7.97;;
85831;SDS011;76278;51.296;16.924;2024-02-21T12:50:57;20.45;;;9.07;;
85831;SDS011;76278;51.296;16.924;2024-02-21T12:53:23;18.75;;;9.40;;
85831;SDS011;76278;51.296;16.924;2024-02-21T12:55:49;17.52;;;7.78;;
85831;SDS011;76278;51.296;16.924;2024-02-21T12:58:14;16.90;;;8.02;;
85831;SDS011;76278;51.296;16.924;2024-02-21T13:00:40;13.60;;;5.32;;
85831;SDS011;76278;51.296;16.924;2024-02-21T13:03:06;15.05;;;5.68;;
85831;SDS011;76278;51.296;16.924;2024-02-21T13:05:32;11.07;;;5.35;;
85831;SDS011;76278;51.296;16.924;2024-02-21T13:07:58;14.05;;;5.30;;
85831;SDS011;76278;51.296;16.924;2024-02-21T13:10:23;15.20;;;5.32;;
85831;SDS011;76278;51.296;16.924;2024-02-21T13:12:49;10.40;;;4.40;;
85831;SDS011;76278;51.296;16.924;2024-02-21T13:15:14;14.32;;;4.68;;
85831;SDS011;76278;51.296;16.924;2024-02-21T13:17:41;10.75;;;4.63;;
85831;SDS011;76278;51.296;16.924;2024-02-21T13:20:11;14.27;;;5.75;;
85831;SDS011;76278;51.296;16.924;2024-02-21T13:22:37;12.35;;;5.93;;
85831;SDS011;76278;51.296;16.924;2024-02-21T13:25:04;14.52;;;7.07;;
85831;SDS011;76278;51.296;16.924;2024-02-21T13:27:32;13.77;;;6.65;;
85831;SDS011;76278;51.296;16.924;2024-02-21T13:30:01;10.63;;;4.80;;
85831;SDS011;76278;51.296;16.924;2024-02-21T13:32:30;16.15;;;6.90;;
85831;SDS011;76278;51.296;16.924;2024-02-21T13:34:57;12.68;;;5.13;;
85831;SDS011;76278;51.296;16.924;2024-02-21T13:37:27;11.60;;;5.82;;
85831;SDS011;76278;51.296;16.924;2024-02-21T13:39:52;14.75;;;6.32;;
85831;SDS011;76278;51.296;16.924;2024-02-21T13:42:18;11.93;;;5.32;;
85831;SDS011;76278;51.296;16.924;2024-02-21T13:44:44;10.77;;;4.93;;
85831;SDS011;76278;51.296;16.924;2024-02-21T13:47:10;13.02;;;5.45;;
85831;SDS011;76278;51.296;16.924;2024-02-21T13:49:38;13.15;;;5.88;;
85831;SDS011;76278;51.296;16.924;2024-02-21T13:52:05;16.75;;;9.18;;
85831;SDS011;76278;51.296;16.924;2024-02-21T13:54:31;14.02;;;7.32;;
85831;SDS011;76278;51.296;16.924;2024-02-21T13:56:56;14.80;;;6.70;;
85831;SDS011;76278;51.296;16.924;2024-02-21T13:59:21;12.98;;;6.72;;
85831;SDS011;76278;51.296;16.924;2024-02-21T14:01:48;12.45;;;5.90;;
85831;SDS011;76278;51.296;16.924;2024-02-21T14:04:13;12.32;;;5.68;;
85831;SDS011;76278;51.296;16.924;2024-02-21T14:06:39;16.60;;;7.32;;
85831;SDS011;76278;51.296;16.924;2024-02-21T14:09:11;10.82;;;5.63;;
85831;SDS011;76278;51.296;16.924;2024-02-21T14:11:37;13.70;;;5.72;;
85831;SDS011;76278;51.296;16.924;2024-02-21T14:14:06;13.35;;;6.32;;
85831;SDS011;76278;51.296;16.924;2024-02-21T14:16:32;18.20;;;9.65;;
85831;SDS011;76278;51.296;16.924;2024-02-21T14:18:58;19.20;;;10.88;;
85831;SDS011;76278;51.296;16.924;2024-02-21T14:21:23;21.27;;;10.55;;
85831;SDS011;76278;51.296;16.924;2024-02-21T14:23:49;21.27;;;10.68;;
85831;SDS011;76278;51.296;16.924;2024-02-21T14:26:14;17.27;;;8.40;;